sensor_id;sensor_type;location;lat;lon;timestamp;P1;durP1;ratioP1;P2;durP2;ratioP2
23573;SDS011;11965;53.640;10.050;2024-01-07T00:02:25;4.35;;;4.35;;
23573;SDS011;11965;53.640;10.050;2024-01-07T00:04:52;4.27;;;4.27;;
23573;SDS011;11965;53.640;10.050;2024-01-07T00:07:19;4.23;;;4.23;;
23573;SDS011;11965;53.640;10.050;2024-01-07T00:09:46;4.19;;;4.19;;
23573;SDS011;11965;53.640;10.050;2024-01-07T00:12:13;3.85;;;3.85;;
23573;SDS011;11965;53.640;10.050;2024-01-07T00:14:41;4.02;;;4.01;;
23573;SDS011;11965;53.640;10.050;2024-01-07T00:17:07;4.33;;;4.31;;
23573;SDS011;11965;53.640;10.050;2024-01-07T00:19:36;4.09;;;4.07;;
23573;SDS011;11965;53.640;10.050;2024-01-07T00:22:05;4.28;;;4.27;;
23573;SDS011;11965;53.640;10.050;2024-01-07T00:24:31;4.15;;;4.11;;
23573;SDS011;11965;53.640;10.050;2024-01-07T00:26:58;4.39;;;4.35;;
23573;SDS011;11965;53.640;10.050;2024-01-07T00:29:25;4.12;;;4.11;;
23573;SDS011;11965;53.640;10.050;2024-01-07T00:31:52;4.17;;;4.17;;
23573;SDS011;11965;53.640;10.050;2024-01-07T00:34:19;4.15;;;4.15;;
23573;SDS011;11965;53.640;10.050;2024-01-07T00:36:48;4.12;;;4.09;;
23573;SDS011;11965;53.640;10.050;2024-01-07T00:39:14;4.42;;;4.39;;
23573;SDS011;11965;53.640;10.050;2024-01-07T00:41:41;4.32;;;4.30;;
23573;SDS011;11965;53.640;10.050;2024-01-07T00:44:08;4.17;;;4.16;;
23573;SDS011;11965;53.640;10.050;2024-01-07T00:46:35;4.15;;;4.14;;
23573;SDS011;11965;53.640;10.050;2024-01-07T00:49:02;4.18;;;4.17;;
23573;SDS011;11965;53.640;10.050;2024-01-07T00:51:29;3.96;;;3.96;;
23573;SDS011;11965;53.640;10.050;2024-01-07T00:53:57;3.98;;;3.98;;
23573;SDS011;11965;53.640;10.050;2024-01-07T00:56:25;3.96;;;3.96;;
23573;SDS011;11965;53.640;10.050;2024-01-07T00:58:52;3.92;;;3.90;;
23573;SDS011;11965;53.640;10.050;2024-01-07T01:01:19;3.96;;;3.91;;
23573;SDS011;11965;53.640;10.050;2024-01-07T01:03:46;4.40;;;4.34;;
23573;SDS011;11965;53.640;10.050;2024-01-07T01:06:13;4.01;;;3.98;;
23573;SDS011;11965;53.640;10.050;2024-01-07T01:08:40;4.05;;;4.05;;
23573;SDS011;11965;53.640;10.050;2024-01-07T01:11:10;3.88;;;3.87;;
23573;SDS011;11965;53.640;10.050;2024-01-07T01:13:36;3.98;;;3.95;;
23573;SDS011;11965;53.640;10.050;2024-01-07T01:16:04;4.09;;;4.05;;
23573;SDS011;11965;53.640;10.050;2024-01-07T01:18:31;4.03;;;4.02;;
23573;SDS011;11965;53.640;10.050;2024-01-07T01:20:57;3.95;;;3.94;;
23573;SDS011;11965;53.640;10.050;2024-01-07T01:23:24;4.02;;;3.99;;
23573;SDS011;11965;53.640;10.050;2024-01-07T01:25:51;3.84;;;3.81;;
23573;SDS011;11965;53.640;10.050;2024-01-07T01:28:19;4.18;;;4.15;;
23573;SDS011;11965;53.640;10.050;2024-01-07T01:30:46;3.99;;;3.96;;
23573;SDS011;11965;53.640;10.050;2024-01-07T01:33:13;4.05;;;4.02;;
23573;SDS011;11965;53.640;10.050;2024-01-07T01:35:40;4.07;;;4.04;;
23573;SDS011;11965;53.640;10.050;2024-01-07T01:38:07;3.67;;;3.65;;
23573;SDS011;11965;53.640;10.050;2024-01-07T01:40:34;3.70;;;3.69;;
23573;SDS011;11965;53.640;10.050;2024-01-07T01:43:01;3.75;;;3.75;;
23573;SDS011;11965;53.640;10.050;2024-01-07T01:45:29;3.76;;;3.76;;
23573;SDS011;11965;53.640;10.050;2024-01-07T01:47:56;3.73;;;3.72;;
23573;SDS011;11965;53.640;10.050;2024-01-07T01:50:23;3.56;;;3.54;;
23573;SDS011;11965;53.640;10.050;2024-01-07T01:52:50;3.48;;;3.48;;
23573;SDS011;11965;53.640;10.050;2024-01-07T01:55:18;3.59;;;3.59;;
23573;SDS011;11965;53.640;10.050;2024-01-07T01:57:46;3.62;;;3.61;;
23573;SDS011;11965;53.640;10.050;2024-01-07T02:00:15;3.73;;;3.73;;
23573;SDS011;11965;53.640;10.050;2024-01-07T02:02:44;3.61;;;3.61;;
23573;SDS011;11965;53.640;10.050;2024-01-07T02:05:11;3.67;;;3.67;;
23573;SDS011;11965;53.640;10.050;2024-01-07T02:07:39;3.62;;;3.62;;
23573;SDS011;11965;53.640;10.050;2024-01-07T02:10:06;3.53;;;3.53;;
23573;SDS011;11965;53.640;10.050;2024-01-07T02:12:33;3.76;;;3.76;;
23573;SDS011;11965;53.640;10.050;2024-01-07T02:15:00;3.58;;;3.56;;
23573;SDS011;11965;53.640;10.050;2024-01-07T02:17:27;3.53;;;3.52;;
23573;SDS011;11965;53.640;10.050;2024-01-07T02:19:56;3.49;;;3.49;;
23573;SDS011;11965;53.640;10.050;2024-01-07T02:22:22;3.39;;;3.38;;
23573;SDS011;11965;53.640;10.050;2024-01-07T02:24:51;3.67;;;3.67;;
23573;SDS011;11965;53.640;10.050;2024-01-07T02:27:18;3.62;;;3.62;;
23573;SDS011;11965;53.640;10.050;2024-01-07T02:29:44;3.69;;;3.68;;
23573;SDS011;11965;53.640;10.050;2024-01-07T02:32:11;3.74;;;3.72;;
23573;SDS011;11965;53.640;10.050;2024-01-07T02:34:38;3.81;;;3.80;;
23573;SDS011;11965;53.640;10.050;2024-01-07T02:37:06;3.65;;;3.65;;
23573;SDS011;11965;53.640;10.050;2024-01-07T02:39:32;3.44;;;3.42;;
23573;SDS011;11965;53.640;10.050;2024-01-07T02:42:01;3.66;;;3.61;;
23573;SDS011;11965;53.640;10.050;2024-01-07T02:44:28;3.76;;;3.71;;
23573;SDS011;11965;53.640;10.050;2024-01-07T02:46:55;3.78;;;3.74;;
23573;SDS011;11965;53.640;10.050;2024-01-07T02:49:22;3.68;;;3.65;;
23573;SDS011;11965;53.640;10.050;2024-01-07T02:51:48;3.83;;;3.80;;
23573;SDS011;11965;53.640;10.050;2024-01-07T02:54:15;3.81;;;3.80;;
23573;SDS011;11965;53.640;10.050;2024-01-07T02:56:42;3.71;;;3.71;;
23573;SDS011;11965;53.640;10.050;2024-01-07T02:59:11;3.63;;;3.63;;
23573;SDS011;11965;53.640;10.050;2024-01-07T03:01:37;3.50;;;3.50;;
23573;SDS011;11965;53.640;10.050;2024-01-07T03:04:06;3.55;;;3.55;;
23573;SDS011;11965;53.640;10.050;2024-01-07T03:06:33;3.50;;;3.50;;
23573;SDS011;11965;53.640;10.050;2024-01-07T03:09:00;3.46;;;3.46;;
23573;SDS011;11965;53.640;10.050;2024-01-07T03:11:28;3.38;;;3.38;;
23573;SDS011;11965;53.640;10.050;2024-01-07T03:13:56;3.42;;;3.42;;
23573;SDS011;11965;53.640;10.050;2024-01-07T03:16:24;3.16;;;3.16;;
23573;SDS011;11965;53.640;10.050;2024-01-07T03:18:52;3.57;;;3.57;;
23573;SDS011;11965;53.640;10.050;2024-01-07T03:21:19;3.38;;;3.38;;
23573;SDS011;11965;53.640;10.050;2024-01-07T03:23:48;3.23;;;3.23;;
23573;SDS011;11965;53.640;10.050;2024-01-07T03:26:16;3.27;;;3.27;;
23573;SDS011;11965;53.640;10.050;2024-01-07T03:28:44;3.24;;;3.24;;
23573;SDS011;11965;53.640;10.050;2024-01-07T03:31:11;3.05;;;3.05;;
23573;SDS011;11965;53.640;10.050;2024-01-07T03:33:41;2.74;;;2.74;;
23573;SDS011;11965;53.640;10.050;2024-01-07T03:36:09;3.18;;;3.18;;
23573;SDS011;11965;53.640;10.050;2024-01-07T03:38:38;3.13;;;3.13;;
23573;SDS011;11965;53.640;10.050;2024-01-07T03:41:05;3.02;;;3.02;;
23573;SDS011;11965;53.640;10.050;2024-01-07T03:43:33;2.97;;;2.97;;
23573;SDS011;11965;53.640;10.050;2024-01-07T03:46:00;2.94;;;2.93;;
23573;SDS011;11965;53.640;10.050;2024-01-07T03:48:27;3.27;;;3.26;;
23573;SDS011;11965;53.640;10.050;2024-01-07T03:50:55;2.90;;;2.90;;
23573;SDS011;11965;53.640;10.050;2024-01-07T03:53:22;3.17;;;3.16;;
23573;SDS011;11965;53.640;10.050;2024-01-07T03:55:49;2.91;;;2.91;;
23573;SDS011;11965;53.640;10.050;2024-01-07T03:58:16;2.90;;;2.90;;
23573;SDS011;11965;53.640;10.050;2024-01-07T04:00:42;2.71;;;2.71;;
23573;SDS011;11965;53.640;10.050;2024-01-07T04:03:09;2.85;;;2.85;;
23573;SDS011;11965;53.640;10.050;2024-01-07T04:05:36;3.04;;;3.04;;
23573;SDS011;11965;53.640;10.050;2024-01-07T04:08:05;3.08;;;3.08;;
23573;SDS011;11965;53.640;10.050;2024-01-07T04:10:35;2.93;;;2.93;;
23573;SDS011;11965;53.640;10.050;2024-01-07T04:13:02;2.70;;;2.70;;
23573;SDS011;11965;53.640;10.050;2024-01-07T04:15:29;2.70;;;2.70;;
23573;SDS011;11965;53.640;10.050;2024-01-07T04:17:57;2.73;;;2.73;;
23573;SDS011;11965;53.640;10.050;2024-01-07T04:20:26;2.65;;;2.65;;
23573;SDS011;11965;53.640;10.050;2024-01-07T04:22:53;2.89;;;2.89;;
23573;SDS011;11965;53.640;10.050;2024-01-07T04:25:21;2.71;;;2.71;;
23573;SDS011;11965;53.640;10.050;2024-01-07T04:27:48;2.50;;;2.50;;
23573;SDS011;11965;53.640;10.050;2024-01-07T04:30:15;2.67;;;2.67;;
23573;SDS011;11965;53.640;10.050;2024-01-07T04:32:42;2.52;;;2.52;;
23573;SDS011;11965;53.640;10.050;2024-01-07T04:35:09;2.35;;;2.35;;
23573;SDS011;11965;53.640;10.050;2024-01-07T04:37:37;2.42;;;2.42;;
23573;SDS011;11965;53.640;10.050;2024-01-07T04:40:04;2.61;;;2.60;;
23573;SDS011;11965;53.640;10.050;2024-01-07T04:42:33;2.42;;;2.41;;
23573;SDS011;11965;53.640;10.050;2024-01-07T04:45:00;2.29;;;2.29;;
23573;SDS011;11965;53.640;10.050;2024-01-07T04:47:27;2.31;;;2.31;;
23573;SDS011;11965;53.640;10.050;2024-01-07T04:49:56;2.41;;;2.40;;
23573;SDS011;11965;53.640;10.050;2024-01-07T04:52:24;2.26;;;2.26;;
23573;SDS011;11965;53.640;10.050;2024-01-07T04:54:51;2.04;;;2.04;;
23573;SDS011;11965;53.640;10.050;2024-01-07T04:57:18;1.92;;;1.92;;
23573;SDS011;11965;53.640;10.050;2024-01-07T04:59:47;2.12;;;2.12;;
23573;SDS011;11965;53.640;10.050;2024-01-07T05:02:15;1.66;;;1.66;;
23573;SDS011;11965;53.640;10.050;2024-01-07T05:04:42;1.85;;;1.85;;
23573;SDS011;11965;53.640;10.050;2024-01-07T05:07:09;1.73;;;1.73;;
23573;SDS011;11965;53.640;10.050;2024-01-07T05:09:36;1.72;;;1.72;;
23573;SDS011;11965;53.640;10.050;2024-01-07T05:12:05;1.73;;;1.73;;
23573;SDS011;11965;53.640;10.050;2024-01-07T05:14:32;1.81;;;1.80;;
23573;SDS011;11965;53.640;10.050;2024-01-07T05:17:00;1.72;;;1.72;;
23573;SDS011;11965;53.640;10.050;2024-01-07T05:19:27;1.69;;;1.69;;
23573;SDS011;11965;53.640;10.050;2024-01-07T05:21:54;1.79;;;1.79;;
23573;SDS011;11965;53.640;10.050;2024-01-07T05:24:21;1.72;;;1.72;;
23573;SDS011;11965;53.640;10.050;2024-01-07T05:26:48;1.91;;;1.91;;
23573;SDS011;11965;53.640;10.050;2024-01-07T05:29:15;1.99;;;1.99;;
23573;SDS011;11965;53.640;10.050;2024-01-07T05:31:42;2.33;;;2.33;;
23573;SDS011;11965;53.640;10.050;2024-01-07T05:34:10;2.70;;;2.70;;
23573;SDS011;11965;53.640;10.050;2024-01-07T05:36:37;2.54;;;2.54;;
23573;SDS011;11965;53.640;10.050;2024-01-07T05:39:04;2.36;;;2.36;;
23573;SDS011;11965;53.640;10.050;2024-01-07T05:41:32;2.63;;;2.63;;
23573;SDS011;11965;53.640;10.050;2024-01-07T05:43:59;2.55;;;2.54;;
23573;SDS011;11965;53.640;10.050;2024-01-07T05:46:26;2.52;;;2.50;;
23573;SDS011;11965;53.640;10.050;2024-01-07T05:48:52;2.52;;;2.51;;
23573;SDS011;11965;53.640;10.050;2024-01-07T05:51:21;2.68;;;2.68;;
23573;SDS011;11965;53.640;10.050;2024-01-07T05:53:47;2.54;;;2.53;;
23573;SDS011;11965;53.640;10.050;2024-01-07T05:56:14;3.05;;;3.04;;
23573;SDS011;11965;53.640;10.050;2024-01-07T05:58:41;2.77;;;2.77;;
23573;SDS011;11965;53.640;10.050;2024-01-07T06:01:08;2.60;;;2.60;;
23573;SDS011;11965;53.640;10.050;2024-01-07T06:03:35;2.66;;;2.66;;
23573;SDS011;11965;53.640;10.050;2024-01-07T06:06:02;2.78;;;2.78;;
23573;SDS011;11965;53.640;10.050;2024-01-07T06:08:30;2.75;;;2.75;;
23573;SDS011;11965;53.640;10.050;2024-01-07T06:10:57;2.67;;;2.67;;
23573;SDS011;11965;53.640;10.050;2024-01-07T06:13:24;2.99;;;2.99;;
23573;SDS011;11965;53.640;10.050;2024-01-07T06:15:51;2.90;;;2.90;;
23573;SDS011;11965;53.640;10.050;2024-01-07T06:18:18;2.91;;;2.91;;
23573;SDS011;11965;53.640;10.050;2024-01-07T06:20:45;2.82;;;2.82;;
23573;SDS011;11965;53.640;10.050;2024-01-07T06:23:12;2.96;;;2.96;;
23573;SDS011;11965;53.640;10.050;2024-01-07T06:25:41;2.91;;;2.91;;
23573;SDS011;11965;53.640;10.050;2024-01-07T06:28:08;2.95;;;2.95;;
23573;SDS011;11965;53.640;10.050;2024-01-07T06:30:36;3.20;;;3.20;;
23573;SDS011;11965;53.640;10.050;2024-01-07T06:33:03;3.19;;;3.18;;
23573;SDS011;11965;53.640;10.050;2024-01-07T06:35:30;3.14;;;3.12;;
23573;SDS011;11965;53.640;10.050;2024-01-07T06:37:57;3.17;;;3.16;;
23573;SDS011;11965;53.640;10.050;2024-01-07T06:40:24;3.04;;;3.04;;
23573;SDS011;11965;53.640;10.050;2024-01-07T06:42:52;3.09;;;3.09;;
23573;SDS011;11965;53.640;10.050;2024-01-07T06:45:19;3.77;;;3.77;;
23573;SDS011;11965;53.640;10.050;2024-01-07T06:47:46;4.02;;;4.02;;
23573;SDS011;11965;53.640;10.050;2024-01-07T06:50:13;4.20;;;4.18;;
23573;SDS011;11965;53.640;10.050;2024-01-07T06:52:40;4.20;;;4.20;;
23573;SDS011;11965;53.640;10.050;2024-01-07T06:55:07;4.59;;;4.58;;
23573;SDS011;11965;53.640;10.050;2024-01-07T06:57:34;4.73;;;4.72;;
23573;SDS011;11965;53.640;10.050;2024-01-07T07:00:03;4.85;;;4.82;;
23573;SDS011;11965;53.640;10.050;2024-01-07T07:02:30;5.10;;;5.08;;
23573;SDS011;11965;53.640;10.050;2024-01-07T07:04:57;5.44;;;5.43;;
23573;SDS011;11965;53.640;10.050;2024-01-07T07:07:24;5.73;;;5.72;;
23573;SDS011;11965;53.640;10.050;2024-01-07T07:09:51;5.61;;;5.61;;
23573;SDS011;11965;53.640;10.050;2024-01-07T07:12:18;5.73;;;5.68;;
23573;SDS011;11965;53.640;10.050;2024-01-07T07:14:45;5.73;;;5.71;;
23573;SDS011;11965;53.640;10.050;2024-01-07T07:17:13;5.82;;;5.82;;
23573;SDS011;11965;53.640;10.050;2024-01-07T07:19:41;5.84;;;5.83;;
23573;SDS011;11965;53.640;10.050;2024-01-07T07:22:08;5.70;;;5.70;;
23573;SDS011;11965;53.640;10.050;2024-01-07T07:24:35;5.63;;;5.56;;
23573;SDS011;11965;53.640;10.050;2024-01-07T07:27:05;5.82;;;5.76;;
23573;SDS011;11965;53.640;10.050;2024-01-07T07:29:32;5.71;;;5.69;;
23573;SDS011;11965;53.640;10.050;2024-01-07T07:31:59;5.90;;;5.89;;
23573;SDS011;11965;53.640;10.050;2024-01-07T07:34:27;5.92;;;5.91;;
23573;SDS011;11965;53.640;10.050;2024-01-07T07:36:54;5.83;;;5.79;;
23573;SDS011;11965;53.640;10.050;2024-01-07T07:39:21;5.76;;;5.75;;
23573;SDS011;11965;53.640;10.050;2024-01-07T07:41:47;5.83;;;5.81;;
23573;SDS011;11965;53.640;10.050;2024-01-07T07:44:14;6.14;;;6.09;;
23573;SDS011;11965;53.640;10.050;2024-01-07T07:46:41;6.00;;;6.00;;
23573;SDS011;11965;53.640;10.050;2024-01-07T07:49:11;6.08;;;6.08;;
23573;SDS011;11965;53.640;10.050;2024-01-07T07:51:39;5.95;;;5.95;;
23573;SDS011;11965;53.640;10.050;2024-01-07T07:54:06;5.76;;;5.76;;
23573;SDS011;11965;53.640;10.050;2024-01-07T07:56:33;5.52;;;5.49;;
23573;SDS011;11965;53.640;10.050;2024-01-07T07:59:01;5.80;;;5.78;;
23573;SDS011;11965;53.640;10.050;2024-01-07T08:01:28;6.04;;;5.97;;
23573;SDS011;11965;53.640;10.050;2024-01-07T08:03:55;5.81;;;5.79;;
23573;SDS011;11965;53.640;10.050;2024-01-07T08:06:22;5.93;;;5.93;;
23573;SDS011;11965;53.640;10.050;2024-01-07T08:08:50;5.51;;;5.50;;
23573;SDS011;11965;53.640;10.050;2024-01-07T08:11:17;5.84;;;5.81;;
23573;SDS011;11965;53.640;10.050;2024-01-07T08:13:44;5.80;;;5.80;;
23573;SDS011;11965;53.640;10.050;2024-01-07T08:16:11;5.84;;;5.84;;
23573;SDS011;11965;53.640;10.050;2024-01-07T08:18:38;5.68;;;5.68;;
23573;SDS011;11965;53.640;10.050;2024-01-07T08:21:05;5.87;;;5.85;;
23573;SDS011;11965;53.640;10.050;2024-01-07T08:23:32;5.67;;;5.67;;
23573;SDS011;11965;53.640;10.050;2024-01-07T08:26:01;6.15;;;6.15;;
23573;SDS011;11965;53.640;10.050;2024-01-07T08:28:29;5.83;;;5.83;;
23573;SDS011;11965;53.640;10.050;2024-01-07T08:30:55;5.64;;;5.63;;
23573;SDS011;11965;53.640;10.050;2024-01-07T08:33:22;5.67;;;5.67;;
23573;SDS011;11965;53.640;10.050;2024-01-07T08:35:49;5.67;;;5.64;;
23573;SDS011;11965;53.640;10.050;2024-01-07T08:38:16;5.46;;;5.41;;
23573;SDS011;11965;53.640;10.050;2024-01-07T08:40:43;5.53;;;5.51;;
23573;SDS011;11965;53.640;10.050;2024-01-07T08:43:11;5.48;;;5.48;;
23573;SDS011;11965;53.640;10.050;2024-01-07T08:45:39;5.35;;;5.35;;
23573;SDS011;11965;53.640;10.050;2024-01-07T08:48:07;5.28;;;5.28;;
23573;SDS011;11965;53.640;10.050;2024-01-07T08:50:34;5.54;;;5.54;;
23573;SDS011;11965;53.640;10.050;2024-01-07T08:53:01;5.29;;;5.28;;
23573;SDS011;11965;53.640;10.050;2024-01-07T08:55:28;5.40;;;5.37;;
23573;SDS011;11965;53.640;10.050;2024-01-07T08:57:55;5.15;;;5.14;;
23573;SDS011;11965;53.640;10.050;2024-01-07T09:00:24;5.47;;;5.47;;
23573;SDS011;11965;53.640;10.050;2024-01-07T09:02:52;5.07;;;5.07;;
23573;SDS011;11965;53.640;10.050;2024-01-07T09:05:19;5.56;;;5.56;;
23573;SDS011;11965;53.640;10.050;2024-01-07T09:07:46;5.65;;;5.63;;
23573;SDS011;11965;53.640;10.050;2024-01-07T09:10:13;5.59;;;5.58;;
23573;SDS011;11965;53.640;10.050;2024-01-07T09:12:40;5.64;;;5.64;;
23573;SDS011;11965;53.640;10.050;2024-01-07T09:15:07;5.56;;;5.56;;
23573;SDS011;11965;53.640;10.050;2024-01-07T09:17:37;5.35;;;5.35;;
23573;SDS011;11965;53.640;10.050;2024-01-07T09:20:04;5.35;;;5.33;;
23573;SDS011;11965;53.640;10.050;2024-01-07T09:22:33;5.74;;;5.69;;
23573;SDS011;11965;53.640;10.050;2024-01-07T09:25:00;5.23;;;5.20;;
23573;SDS011;11965;53.640;10.050;2024-01-07T09:27:29;5.11;;;5.08;;
23573;SDS011;11965;53.640;10.050;2024-01-07T09:29:56;5.53;;;5.52;;
23573;SDS011;11965;53.640;10.050;2024-01-07T09:32:23;5.58;;;5.56;;
23573;SDS011;11965;53.640;10.050;2024-01-07T09:34:51;5.30;;;5.27;;
23573;SDS011;11965;53.640;10.050;2024-01-07T09:37:18;5.63;;;5.53;;
23573;SDS011;11965;53.640;10.050;2024-01-07T09:39:46;5.89;;;5.74;;
23573;SDS011;11965;53.640;10.050;2024-01-07T09:42:13;5.98;;;5.94;;
23573;SDS011;11965;53.640;10.050;2024-01-07T09:44:41;5.91;;;5.79;;
23573;SDS011;11965;53.640;10.050;2024-01-07T09:47:10;6.04;;;5.88;;
23573;SDS011;11965;53.640;10.050;2024-01-07T09:49:38;5.96;;;5.87;;
23573;SDS011;11965;53.640;10.050;2024-01-07T09:52:07;5.54;;;5.51;;
23573;SDS011;11965;53.640;10.050;2024-01-07T09:54:36;6.65;;;6.58;;
23573;SDS011;11965;53.640;10.050;2024-01-07T09:57:04;6.86;;;6.83;;
23573;SDS011;11965;53.640;10.050;2024-01-07T09:59:33;6.21;;;6.16;;
23573;SDS011;11965;53.640;10.050;2024-01-07T10:02:00;5.52;;;5.50;;
23573;SDS011;11965;53.640;10.050;2024-01-07T10:04:27;5.48;;;5.48;;
23573;SDS011;11965;53.640;10.050;2024-01-07T10:06:54;5.06;;;5.06;;
23573;SDS011;11965;53.640;10.050;2024-01-07T10:09:23;5.15;;;5.15;;
23573;SDS011;11965;53.640;10.050;2024-01-07T10:11:52;5.75;;;5.75;;
23573;SDS011;11965;53.640;10.050;2024-01-07T10:14:19;6.01;;;6.01;;
23573;SDS011;11965;53.640;10.050;2024-01-07T10:16:47;5.92;;;5.92;;
23573;SDS011;11965;53.640;10.050;2024-01-07T10:19:18;5.43;;;5.43;;
23573;SDS011;11965;53.640;10.050;2024-01-07T10:21:49;5.39;;;5.39;;
23573;SDS011;11965;53.640;10.050;2024-01-07T10:24:31;4.87;;;4.86;;
23573;SDS011;11965;53.640;10.050;2024-01-07T10:27:03;5.33;;;5.32;;
23573;SDS011;11965;53.640;10.050;2024-01-07T10:29:30;4.86;;;4.85;;
23573;SDS011;11965;53.640;10.050;2024-01-07T10:31:57;5.09;;;5.06;;
23573;SDS011;11965;53.640;10.050;2024-01-07T10:34:28;5.30;;;5.30;;
23573;SDS011;11965;53.640;10.050;2024-01-07T10:36:58;5.46;;;5.46;;
23573;SDS011;11965;53.640;10.050;2024-01-07T10:39:26;5.68;;;5.68;;
23573;SDS011;11965;53.640;10.050;2024-01-07T10:41:54;5.57;;;5.56;;
23573;SDS011;11965;53.640;10.050;2024-01-07T10:44:24;5.39;;;5.39;;
23573;SDS011;11965;53.640;10.050;2024-01-07T10:46:53;5.85;;;5.85;;
23573;SDS011;11965;53.640;10.050;2024-01-07T10:49:22;6.03;;;6.03;;
23573;SDS011;11965;53.640;10.050;2024-01-07T10:51:54;6.43;;;6.43;;
23573;SDS011;11965;53.640;10.050;2024-01-07T10:54:30;6.83;;;6.80;;
23573;SDS011;11965;53.640;10.050;2024-01-07T10:57:01;6.29;;;6.29;;
23573;SDS011;11965;53.640;10.050;2024-01-07T10:59:35;6.66;;;6.66;;
23573;SDS011;11965;53.640;10.050;2024-01-07T11:02:03;6.72;;;6.66;;
23573;SDS011;11965;53.640;10.050;2024-01-07T11:04:32;6.97;;;6.84;;
23573;SDS011;11965;53.640;10.050;2024-01-07T11:07:12;6.74;;;6.71;;
23573;SDS011;11965;53.640;10.050;2024-01-07T11:09:54;6.44;;;6.44;;
23573;SDS011;11965;53.640;10.050;2024-01-07T11:12:32;6.29;;;6.29;;
23573;SDS011;11965;53.640;10.050;2024-01-07T11:14:59;6.52;;;6.47;;
23573;SDS011;11965;53.640;10.050;2024-01-07T11:17:41;6.96;;;6.90;;
23573;SDS011;11965;53.640;10.050;2024-01-07T11:20:13;7.56;;;7.55;;
23573;SDS011;11965;53.640;10.050;2024-01-07T11:22:45;7.22;;;7.19;;
23573;SDS011;11965;53.640;10.050;2024-01-07T11:25:28;6.05;;;6.00;;
23573;SDS011;11965;53.640;10.050;2024-01-07T11:27:58;5.43;;;5.43;;
23573;SDS011;11965;53.640;10.050;2024-01-07T11:30:27;4.74;;;4.73;;
23573;SDS011;11965;53.640;10.050;2024-01-07T11:32:58;4.65;;;4.65;;
23573;SDS011;11965;53.640;10.050;2024-01-07T11:38:23;5.85;;;5.84;;
23573;SDS011;11965;53.640;10.050;2024-01-07T11:40:50;5.65;;;5.60;;
23573;SDS011;11965;53.640;10.050;2024-01-07T11:43:19;5.91;;;5.88;;
23573;SDS011;11965;53.640;10.050;2024-01-07T11:45:46;5.44;;;5.42;;
23573;SDS011;11965;53.640;10.050;2024-01-07T11:48:13;5.64;;;5.64;;
23573;SDS011;11965;53.640;10.050;2024-01-07T11:50:41;5.01;;;5.01;;
23573;SDS011;11965;53.640;10.050;2024-01-07T11:53:08;4.67;;;4.66;;
23573;SDS011;11965;53.640;10.050;2024-01-07T11:55:37;4.59;;;4.59;;
23573;SDS011;11965;53.640;10.050;2024-01-07T11:58:04;4.34;;;4.34;;
23573;SDS011;11965;53.640;10.050;2024-01-07T12:00:32;4.33;;;4.33;;
23573;SDS011;11965;53.640;10.050;2024-01-07T12:03:00;4.61;;;4.61;;
23573;SDS011;11965;53.640;10.050;2024-01-07T12:05:27;5.14;;;5.13;;
23573;SDS011;11965;53.640;10.050;2024-01-07T12:07:55;4.97;;;4.96;;
23573;SDS011;11965;53.640;10.050;2024-01-07T12:10:23;4.77;;;4.77;;
23573;SDS011;11965;53.640;10.050;2024-01-07T12:12:50;5.04;;;5.03;;
23573;SDS011;11965;53.640;10.050;2024-01-07T12:15:18;5.47;;;5.43;;
23573;SDS011;11965;53.640;10.050;2024-01-07T12:17:56;5.93;;;5.87;;
23573;SDS011;11965;53.640;10.050;2024-01-07T12:20:24;6.05;;;5.95;;
23573;SDS011;11965;53.640;10.050;2024-01-07T12:22:51;5.60;;;5.56;;
23573;SDS011;11965;53.640;10.050;2024-01-07T12:25:21;5.97;;;5.96;;
23573;SDS011;11965;53.640;10.050;2024-01-07T12:27:49;6.08;;;6.08;;
23573;SDS011;11965;53.640;10.050;2024-01-07T12:30:19;5.75;;;5.75;;
23573;SDS011;11965;53.640;10.050;2024-01-07T12:32:46;6.19;;;6.18;;
23573;SDS011;11965;53.640;10.050;2024-01-07T12:35:15;5.32;;;5.31;;
23573;SDS011;11965;53.640;10.050;2024-01-07T12:37:43;5.36;;;5.34;;
23573;SDS011;11965;53.640;10.050;2024-01-07T12:40:11;5.46;;;5.44;;
23573;SDS011;11965;53.640;10.050;2024-01-07T12:42:38;5.35;;;5.35;;
23573;SDS011;11965;53.640;10.050;2024-01-07T12:45:10;4.55;;;4.52;;
23573;SDS011;11965;53.640;10.050;2024-01-07T12:47:40;4.29;;;4.29;;
23573;SDS011;11965;53.640;10.050;2024-01-07T12:50:07;4.84;;;4.84;;
23573;SDS011;11965;53.640;10.050;2024-01-07T12:52:37;4.15;;;4.13;;
23573;SDS011;11965;53.640;10.050;2024-01-07T12:55:06;4.13;;;4.10;;
23573;SDS011;11965;53.640;10.050;2024-01-07T12:57:34;4.34;;;4.31;;
23573;SDS011;11965;53.640;10.050;2024-01-07T13:00:02;4.43;;;4.37;;
23573;SDS011;11965;53.640;10.050;2024-01-07T13:02:31;4.83;;;4.83;;
23573;SDS011;11965;53.640;10.050;2024-01-07T13:04:59;6.21;;;6.21;;
23573;SDS011;11965;53.640;10.050;2024-01-07T13:07:26;6.39;;;6.37;;
23573;SDS011;11965;53.640;10.050;2024-01-07T13:09:54;6.06;;;6.02;;
23573;SDS011;11965;53.640;10.050;2024-01-07T13:12:21;6.73;;;6.66;;
23573;SDS011;11965;53.640;10.050;2024-01-07T13:14:48;5.53;;;5.48;;
23573;SDS011;11965;53.640;10.050;2024-01-07T13:17:15;5.66;;;5.58;;
23573;SDS011;11965;53.640;10.050;2024-01-07T13:19:42;5.06;;;5.00;;
23573;SDS011;11965;53.640;10.050;2024-01-07T13:22:09;5.18;;;5.15;;
23573;SDS011;11965;53.640;10.050;2024-01-07T13:24:36;4.90;;;4.85;;
23573;SDS011;11965;53.640;10.050;2024-01-07T13:27:06;4.51;;;4.51;;
23573;SDS011;11965;53.640;10.050;2024-01-07T13:29:33;3.88;;;3.88;;
23573;SDS011;11965;53.640;10.050;2024-01-07T13:32:00;4.11;;;4.11;;
23573;SDS011;11965;53.640;10.050;2024-01-07T13:34:27;4.05;;;4.04;;
23573;SDS011;11965;53.640;10.050;2024-01-07T13:36:55;3.98;;;3.98;;
23573;SDS011;11965;53.640;10.050;2024-01-07T13:39:22;3.99;;;3.99;;
23573;SDS011;11965;53.640;10.050;2024-01-07T13:41:53;4.03;;;4.03;;
23573;SDS011;11965;53.640;10.050;2024-01-07T13:44:22;4.02;;;4.02;;
23573;SDS011;11965;53.640;10.050;2024-01-07T13:46:48;3.94;;;3.94;;
23573;SDS011;11965;53.640;10.050;2024-01-07T13:49:17;3.86;;;3.83;;
23573;SDS011;11965;53.640;10.050;2024-01-07T13:51:44;3.92;;;3.92;;
23573;SDS011;11965;53.640;10.050;2024-01-07T13:54:11;4.27;;;4.27;;
23573;SDS011;11965;53.640;10.050;2024-01-07T13:56:39;4.69;;;4.67;;
23573;SDS011;11965;53.640;10.050;2024-01-07T13:59:07;5.68;;;5.60;;
23573;SDS011;11965;53.640;10.050;2024-01-07T14:01:36;4.91;;;4.88;;
23573;SDS011;11965;53.640;10.050;2024-01-07T14:04:04;4.73;;;4.73;;
23573;SDS011;11965;53.640;10.050;2024-01-07T14:06:31;5.44;;;5.44;;
23573;SDS011;11965;53.640;10.050;2024-01-07T14:08:58;4.51;;;4.51;;
23573;SDS011;11965;53.640;10.050;2024-01-07T14:11:25;4.78;;;4.78;;
23573;SDS011;11965;53.640;10.050;2024-01-07T14:13:53;4.73;;;4.73;;
23573;SDS011;11965;53.640;10.050;2024-01-07T14:16:20;4.94;;;4.93;;
23573;SDS011;11965;53.640;10.050;2024-01-07T14:18:48;4.73;;;4.71;;
23573;SDS011;11965;53.640;10.050;2024-01-07T14:21:15;4.78;;;4.76;;
23573;SDS011;11965;53.640;10.050;2024-01-07T14:23:42;4.68;;;4.67;;
23573;SDS011;11965;53.640;10.050;2024-01-07T14:26:09;3.93;;;3.92;;
23573;SDS011;11965;53.640;10.050;2024-01-07T14:28:36;3.98;;;3.97;;
23573;SDS011;11965;53.640;10.050;2024-01-07T14:31:03;4.35;;;4.29;;
23573;SDS011;11965;53.640;10.050;2024-01-07T14:33:30;6.59;;;6.49;;
23573;SDS011;11965;53.640;10.050;2024-01-07T14:35:58;7.69;;;7.57;;
23573;SDS011;11965;53.640;10.050;2024-01-07T14:38:25;10.86;;;10.28;;
23573;SDS011;11965;53.640;10.050;2024-01-07T14:40:52;11.17;;;10.55;;